Time;durP1;ratioP1;P1;durP2;ratioP2;P2;SDS_P1;SDS_P2;PMS_P1;PMS_P2;Temp;Humidity;BMP_temperature;BMP_pressure;BME280_temperature;BME280_humidity;BME280_pressure;Samples;Min_cycle;Max_cycle;Signal;HPM_P1;HPM_P2
2021/03/23 00:01:08;;;;;;;13.90;7.07;;;7.30;99.90;;;;;;5088071;28;20534;-68
2021/03/23 00:03:41;;;;;;;12.80;6.70;;;7.30;99.90;;;;;;5087552;27;20885;-70
2021/03/23 00:06:08;;;;;;;7.17;5.20;;;7.30;99.90;;;;;;5088229;28;20511;-68
2021/03/23 00:08:38;;;;;;;8.97;6.63;;;7.20;99.90;;;;;;5105140;27;20542;-68
2021/03/23 00:11:14;;;;;;;15.20;6.47;;;7.20;99.90;;;;;;5079293;28;20468;-68
2021/03/23 00:13:41;;;;;;;10.07;5.17;;;7.20;99.90;;;;;;5088463;28;20448;-68
2021/03/23 00:16:09;;;;;;;11.33;5.77;;;7.20;99.90;;;;;;5084115;28;20554;-68
2021/03/23 00:18:35;;;;;;;9.33;6.30;;;7.20;99.90;;;;;;5095722;28;20535;-71
2021/03/23 00:21:01;;;;;;;9.73;5.40;;;7.20;99.90;;;;;;5092216;28;20881;-70
2021/03/23 00:23:27;;;;;;;11.60;6.60;;;7.30;99.90;;;;;;5098076;28;20466;-70
2021/03/23 00:25:53;;;;;;;8.10;5.30;;;7.30;99.90;;;;;;5063270;28;20461;-68
2021/03/23 00:28:22;;;;;;;17.20;5.80;;;7.30;99.90;;;;;;5067832;28;20226;-67
2021/03/23 00:30:48;;;;;;;10.90;6.20;;;7.30;99.90;;;;;;5098432;28;20230;-68
2021/03/23 00:33:13;;;;;;;11.20;5.27;;;7.30;99.90;;;;;;5109046;28;20471;-70
2021/03/23 00:35:39;;;;;;;11.80;5.50;;;7.30;99.90;;;;;;5091295;28;22735;-71
2021/03/23 00:38:08;;;;;;;10.23;4.70;;;7.30;99.90;;;;;;5074527;28;20683;-68
2021/03/23 00:40:37;;;;;;;8.77;5.40;;;7.30;99.90;;;;;;5083031;28;20761;-69
2021/03/23 00:43:05;;;;;;;11.03;5.23;;;7.30;99.90;;;;;;5050415;28;20548;-69
2021/03/23 00:45:34;;;;;;;9.30;5.50;;;7.30;99.90;;;;;;5075737;28;20448;-68
2021/03/23 00:48:00;;;;;;;8.23;5.00;;;7.30;99.90;;;;;;5070329;28;20460;-68
2021/03/23 00:50:26;;;;;;;13.73;5.63;;;7.30;99.90;;;;;;5053890;28;20456;-68
2021/03/23 00:52:52;;;;;;;9.90;5.47;;;7.30;99.90;;;;;;5070752;28;20790;-71
2021/03/23 00:55:18;;;;;;;9.60;4.77;;;7.20;99.90;;;;;;5070756;28;20449;-68
2021/03/23 00:57:43;;;;;;;11.07;4.07;;;7.20;99.90;;;;;;5070953;28;20246;-68
2021/03/23 01:00:14;;;;;;;8.60;4.43;;;7.20;99.90;;;;;;5092536;28;20218;-68
2021/03/23 01:02:40;;;;;;;9.80;5.50;;;7.20;99.90;;;;;;5054101;28;20251;-68
2021/03/23 01:05:06;;;;;;;11.40;5.63;;;7.10;99.90;;;;;;5087771;28;20460;-70
2021/03/23 01:07:32;;;;;;;14.47;4.27;;;7.20;99.90;;;;;;5065889;28;20773;-68
2021/03/23 01:09:58;;;;;;;13.90;5.73;;;7.20;99.90;;;;;;5064812;28;20464;-68
2021/03/23 01:12:24;;;;;;;7.23;4.10;;;7.20;99.90;;;;;;5071504;28;20226;-67
2021/03/23 01:14:49;;;;;;;7.50;4.90;;;7.10;99.90;;;;;;5070588;28;20252;-68
2021/03/23 01:17:15;;;;;;;11.03;5.50;;;7.10;99.90;;;;;;5072044;28;20221;-70
2021/03/23 01:19:41;;;;;;;10.17;4.40;;;7.20;99.90;;;;;;5072929;27;20214;-69
2021/03/23 01:22:07;;;;;;;11.83;6.30;;;7.20;99.90;;;;;;5090353;28;20639;-68
2021/03/23 01:24:34;;;;;;;11.90;4.83;;;7.20;99.90;;;;;;5073588;28;20457;-68
2021/03/23 01:27:00;;;;;;;8.40;4.80;;;7.10;99.90;;;;;;5087014;28;20472;-68
2021/03/23 01:29:27;;;;;;;13.60;5.47;;;7.10;99.90;;;;;;5070995;28;20896;-68
2021/03/23 01:31:53;;;;;;;7.70;5.40;;;7.10;99.90;;;;;;5090235;28;20529;-68
2021/03/23 01:34:19;;;;;;;10.50;5.00;;;7.10;99.90;;;;;;5089532;28;20463;-68
2021/03/23 01:36:44;;;;;;;11.77;5.47;;;7.10;99.90;;;;;;5063441;28;20207;-69
2021/03/23 01:39:10;;;;;;;8.33;3.80;;;7.10;99.90;;;;;;5048358;28;20218;-70
2021/03/23 01:41:36;;;;;;;10.77;4.90;;;7.10;99.90;;;;;;5054453;27;20214;-69
2021/03/23 01:44:01;;;;;;;10.47;4.83;;;7.10;99.90;;;;;;5055877;28;20218;-68
2021/03/23 01:46:39;;;;;;;8.87;4.57;;;7.10;99.90;;;;;;5089874;27;20620;-68
2021/03/23 01:49:17;;;;;;;8.03;4.90;;;7.10;99.90;;;;;;5089414;28;20301;-68
2021/03/23 01:51:46;;;;;;;9.97;4.70;;;7.10;99.90;;;;;;5089746;28;20835;-69
2021/03/23 01:54:26;;;;;;;9.30;4.23;;;7.10;99.90;;;;;;5078410;28;20456;-68
2021/03/23 01:56:55;;;;;;;6.43;4.40;;;7.10;99.90;;;;;;5068439;28;20953;-68
2021/03/23 01:59:22;;;;;;;7.33;4.20;;;7.10;99.90;;;;;;5069343;28;21000;-69
2021/03/23 02:01:49;;;;;;;8.90;3.97;;;7.10;99.90;;;;;;5086390;28;20453;-68
2021/03/23 02:04:15;;;;;;;8.33;4.67;;;7.10;99.90;;;;;;5068156;28;20458;-68
2021/03/23 02:06:48;;;;;;;9.40;5.30;;;7.10;99.90;;;;;;5052081;28;20448;-70
2021/03/23 02:09:18;;;;;;;9.60;4.70;;;7.10;99.90;;;;;;5068193;28;20457;-69
2021/03/23 02:11:48;;;;;;;12.50;5.70;;;7.10;99.90;;;;;;5084060;28;20464;-68
2021/03/23 02:14:15;;;;;;;8.27;4.10;;;7.10;99.90;;;;;;5090619;28;20483;-69
2021/03/23 02:16:41;;;;;;;7.80;4.50;;;7.20;99.90;;;;;;5053662;28;20449;-69
2021/03/23 02:19:09;;;;;;;7.73;3.83;;;7.20;99.90;;;;;;5069734;28;20464;-70
2021/03/23 02:21:35;;;;;;;11.43;5.20;;;7.10;99.90;;;;;;5084882;28;20541;-68
2021/03/23 02:24:01;;;;;;;9.50;4.50;;;7.20;99.90;;;;;;5036512;28;21033;-69
2021/03/23 02:26:32;;;;;;;8.43;4.80;;;7.20;99.90;;;;;;5068702;28;20233;-68
2021/03/23 02:29:00;;;;;;;10.27;5.40;;;7.10;99.90;;;;;;5068728;28;20588;-69
2021/03/23 02:31:37;;;;;;;6.83;3.97;;;7.20;99.90;;;;;;5104400;27;20470;-70
2021/03/23 02:34:05;;;;;;;7.97;4.40;;;7.20;99.90;;;;;;5106285;28;20484;-69
2021/03/23 02:36:32;;;;;;;9.77;4.47;;;7.20;99.90;;;;;;5081858;28;20452;-69
2021/03/23 02:38:59;;;;;;;6.30;4.00;;;7.20;99.90;;;;;;5066470;28;20453;-68
2021/03/23 02:41:25;;;;;;;7.70;3.97;;;7.20;99.90;;;;;;5097600;28;20534;-69
2021/03/23 02:43:51;;;;;;;4.33;3.10;;;7.20;99.90;;;;;;5078047;28;20448;-68
2021/03/23 02:46:17;;;;;;;10.90;4.53;;;7.20;99.90;;;;;;5052558;28;20969;-69
2021/03/23 02:48:43;;;;;;;7.60;4.20;;;7.20;99.90;;;;;;5085808;28;20448;-69
2021/03/23 02:51:12;;;;;;;9.70;4.40;;;7.20;99.90;;;;;;5085999;28;20478;-68
2021/03/23 02:53:38;;;;;;;7.83;4.83;;;7.20;99.90;;;;;;5068394;28;20230;-68
2021/03/23 02:56:04;;;;;;;7.27;4.10;;;7.30;99.90;;;;;;5052796;28;20519;-68
2021/03/23 02:58:29;;;;;;;4.90;3.90;;;7.30;99.90;;;;;;5068786;28;20713;-69
2021/03/23 03:00:55;;;;;;;9.43;3.70;;;7.30;99.90;;;;;;5035898;28;20210;-69
2021/03/23 03:03:21;;;;;;;9.97;4.87;;;7.30;99.90;;;;;;5068565;28;20601;-68
2021/03/23 03:05:46;;;;;;;5.50;3.70;;;7.30;99.90;;;;;;5069131;28;20634;-68
2021/03/23 03:08:12;;;;;;;6.40;3.90;;;7.30;99.90;;;;;;5086136;28;20215;-68
2021/03/23 03:10:38;;;;;;;6.67;3.70;;;7.30;99.90;;;;;;5053157;28;20225;-68
2021/03/23 03:13:04;;;;;;;6.53;4.13;;;7.30;99.90;;;;;;5064608;28;20230;-68
2021/03/23 03:15:31;;;;;;;7.37;3.43;;;7.20;99.90;;;;;;5076052;28;20230;-68
2021/03/23 03:17:58;;;;;;;9.03;4.30;;;7.20;99.90;;;;;;5072619;28;20854;-68
2021/03/23 03:20:25;;;;;;;7.87;3.83;;;7.20;99.90;;;;;;5073457;28;21029;-68
2021/03/23 03:22:51;;;;;;;9.27;4.33;;;7.20;99.90;;;;;;5085779;28;20438;-69
2021/03/23 03:25:19;;;;;;;8.67;3.40;;;7.20;99.90;;;;;;5088531;28;20480;-68
2021/03/23 03:27:45;;;;;;;11.70;4.80;;;7.20;99.90;;;;;;5055777;28;20464;-68
2021/03/23 03:30:19;;;;;;;9.50;4.80;;;7.20;99.90;;;;;;5072082;28;20468;-68
2021/03/23 03:32:45;;;;;;;10.20;4.30;;;7.20;99.90;;;;;;5071524;28;20245;-69
2021/03/23 03:35:11;;;;;;;8.87;4.43;;;7.20;99.90;;;;;;5073759;28;20559;-68
2021/03/23 03:37:37;;;;;;;6.70;3.87;;;7.20;99.90;;;;;;5084225;28;21012;-68
2021/03/23 03:40:07;;;;;;;8.17;4.40;;;7.30;99.90;;;;;;5058674;28;20471;-69
2021/03/23 03:42:32;;;;;;;10.93;4.40;;;7.20;99.90;;;;;;5051354;28;20251;-68
2021/03/23 03:44:58;;;;;;;8.83;4.20;;;7.20;99.90;;;;;;5052236;28;20477;-69
2021/03/23 03:47:23;;;;;;;6.00;4.03;;;7.20;99.90;;;;;;5051206;28;20223;-68
2021/03/23 03:49:49;;;;;;;6.00;4.47;;;7.20;99.90;;;;;;5018541;28;20226;-68
2021/03/23 03:52:15;;;;;;;7.97;4.20;;;7.20;99.90;;;;;;5052119;28;20227;-68
2021/03/23 03:54:40;;;;;;;7.87;3.70;;;7.20;99.90;;;;;;5035024;28;20211;-68
2021/03/23 03:57:06;;;;;;;6.23;3.97;;;7.20;99.90;;;;;;5018826;28;20211;-68
2021/03/23 03:59:32;;;;;;;8.40;4.13;;;7.20;99.90;;;;;;5060717;28;20218;-68
2021/03/23 04:01:58;;;;;;;6.53;3.40;;;7.20;99.90;;;;;;5066909;28;20284;-68
2021/03/23 04:04:23;;;;;;;7.30;4.30;;;7.20;99.90;;;;;;5043666;28;20225;-68
2021/03/23 04:06:49;;;;;;;10.47;3.90;;;7.20;99.90;;;;;;5062954;28;20225;-68
2021/03/23 04:09:15;;;;;;;9.10;4.70;;;7.20;99.90;;;;;;5062945;28;20217;-69
2021/03/23 04:11:40;;;;;;;6.67;4.27;;;7.20;99.90;;;;;;5079425;28;20688;-68
2021/03/23 04:14:06;;;;;;;7.03;3.60;;;7.20;99.90;;;;;;5070731;28;20232;-68
2021/03/23 04:16:32;;;;;;;7.97;3.47;;;7.20;99.90;;;;;;5042558;28;20218;-68
2021/03/23 04:18:57;;;;;;;9.20;4.53;;;7.20;99.90;;;;;;5075241;28;20707;-69
2021/03/23 04:21:23;;;;;;;7.20;4.70;;;7.20;99.90;;;;;;5074363;28;20753;-68
2021/03/23 04:23:49;;;;;;;10.60;4.43;;;7.20;99.90;;;;;;5091200;28;20294;-68
2021/03/23 04:26:14;;;;;;;9.57;4.40;;;7.10;99.90;;;;;;5071924;28;20222;-69
2021/03/23 04:28:40;;;;;;;8.67;4.03;;;7.20;99.90;;;;;;5055320;28;20635;-69
2021/03/23 04:31:07;;;;;;;11.23;4.50;;;7.20;99.90;;;;;;5055252;28;20745;-68
2021/03/23 04:33:34;;;;;;;6.00;3.90;;;7.10;99.90;;;;;;5055180;28;20783;-68
2021/03/23 04:36:06;;;;;;;12.57;4.93;;;7.20;99.90;;;;;;5055682;28;20445;-68
2021/03/23 04:38:37;;;;;;;7.17;3.80;;;7.10;99.90;;;;;;5055032;28;20499;-69
2021/03/23 04:41:08;;;;;;;9.53;4.90;;;7.20;99.90;;;;;;5063146;28;20495;-67
2021/03/23 04:43:37;;;;;;;6.77;4.23;;;7.20;99.90;;;;;;5075009;28;20510;-68
2021/03/23 04:46:03;;;;;;;9.50;4.97;;;7.20;99.90;;;;;;5075413;28;20536;-68
2021/03/23 04:48:29;;;;;;;10.30;4.53;;;7.10;99.90;;;;;;5074337;28;20465;-69
2021/03/23 04:50:55;;;;;;;6.53;3.90;;;7.10;99.90;;;;;;5074875;28;20444;-68
2021/03/23 04:53:24;;;;;;;11.57;4.43;;;7.10;99.90;;;;;;5075256;28;20214;-70
2021/03/23 04:55:52;;;;;;;9.10;4.67;;;7.10;99.90;;;;;;5071007;28;20444;-68
2021/03/23 04:58:18;;;;;;;9.27;4.80;;;7.00;99.90;;;;;;5070834;28;20489;-70
2021/03/23 05:00:44;;;;;;;11.87;4.50;;;7.00;99.90;;;;;;5070044;28;20472;-69
2021/03/23 05:03:14;;;;;;;9.17;5.40;;;7.10;99.90;;;;;;5037425;28;20491;-67
2021/03/23 05:05:40;;;;;;;10.27;4.83;;;7.10;99.90;;;;;;5087688;28;20452;-69
2021/03/23 05:08:06;;;;;;;7.50;5.07;;;7.10;99.90;;;;;;5053629;28;20444;-70
2021/03/23 05:10:32;;;;;;;9.23;4.90;;;7.10;99.90;;;;;;5086521;28;20245;-68
2021/03/23 05:12:57;;;;;;;7.57;4.77;;;7.00;99.90;;;;;;5061256;28;20232;-68
2021/03/23 05:15:25;;;;;;;8.70;5.53;;;7.00;99.90;;;;;;5051643;27;20296;-68
2021/03/23 05:17:51;;;;;;;9.80;5.50;;;7.00;99.90;;;;;;5085641;28;20271;-68
2021/03/23 05:20:17;;;;;;;10.60;5.30;;;7.00;99.90;;;;;;5067385;28;20453;-69
2021/03/23 05:22:42;;;;;;;16.30;7.00;;;7.00;99.90;;;;;;5077666;28;20220;-67
2021/03/23 05:25:10;;;;;;;10.30;5.57;;;6.90;99.90;;;;;;5076041;28;20226;-68
2021/03/23 05:27:35;;;;;;;12.87;7.07;;;6.90;99.90;;;;;;5073222;28;20229;-68
2021/03/23 05:30:03;;;;;;;12.00;5.20;;;6.90;99.90;;;;;;5056911;28;20472;-69
2021/03/23 05:32:28;;;;;;;11.37;6.50;;;6.90;99.90;;;;;;5073724;28;20226;-68
2021/03/23 05:34:54;;;;;;;10.17;5.47;;;6.90;99.90;;;;;;5073655;28;20461;-68
2021/03/23 05:37:20;;;;;;;11.87;5.97;;;6.90;99.90;;;;;;5067847;28;20240;-68
2021/03/23 05:39:45;;;;;;;12.07;6.40;;;6.90;99.90;;;;;;5077083;28;20686;-69
2021/03/23 05:42:29;;;;;;;11.07;5.90;;;6.90;99.90;;;;;;5073073;28;20345;-68
2021/03/23 05:45:17;;;;;;;10.23;4.40;;;6.90;99.90;;;;;;5087548;28;20223;-68
2021/03/23 05:47:46;;;;;;;11.90;6.40;;;6.90;99.90;;;;;;5054494;28;20918;-67
2021/03/23 05:50:15;;;;;;;9.83;5.50;;;6.90;99.90;;;;;;5072940;28;20857;-68
2021/03/23 05:52:52;;;;;;;12.13;6.10;;;6.90;99.90;;;;;;5082075;28;20480;-68
2021/03/23 05:55:38;;;;;;;11.47;5.87;;;6.90;99.90;;;;;;5075317;28;20456;-67
2021/03/23 05:58:04;;;;;;;12.83;6.57;;;6.90;99.90;;;;;;5097225;28;20467;-69
2021/03/23 06:00:36;;;;;;;8.93;5.53;;;6.80;99.90;;;;;;5093038;28;20535;-69
2021/03/23 06:03:05;;;;;;;13.43;7.23;;;6.90;99.90;;;;;;5094007;28;20456;-68
2021/03/23 06:05:39;;;;;;;12.70;6.80;;;6.90;99.90;;;;;;5076396;28;20461;-68
2021/03/23 06:08:15;;;;;;;13.23;6.20;;;6.80;99.90;;;;;;5074004;28;20459;-69
2021/03/23 06:10:41;;;;;;;11.60;7.07;;;6.80;99.90;;;;;;5076040;28;20519;-68
2021/03/23 06:13:31;;;;;;;13.40;6.77;;;6.80;99.90;;;;;;5079235;28;20461;-68
2021/03/23 06:16:30;;;;;;;16.60;6.80;;;6.80;99.90;;;;;;5099615;28;20224;-68
2021/03/23 06:18:56;;;;;;;14.23;6.97;;;6.90;99.90;;;;;;5068166;28;20450;-67
2021/03/23 06:21:42;;;;;;;12.37;6.47;;;6.80;99.90;;;;;;5085760;28;20452;-68
2021/03/23 06:24:23;;;;;;;13.00;6.37;;;6.90;99.90;;;;;;5090132;28;20211;-68
2021/03/23 06:27:11;;;;;;;15.60;5.73;;;6.90;99.90;;;;;;5089657;28;20456;-70
2021/03/23 06:30:04;;;;;;;9.70;5.50;;;6.90;99.90;;;;;;5089309;28;21050;-67
2021/03/23 06:32:51;;;;;;;11.13;5.70;;;6.90;99.90;;;;;;5092097;28;20514;-68
2021/03/23 06:35:42;;;;;;;12.27;6.17;;;6.90;99.90;;;;;;5080447;28;20471;-67
2021/03/23 06:38:37;;;;;;;14.50;6.47;;;6.90;99.90;;;;;;5074831;28;20449;-68
2021/03/23 06:41:27;;;;;;;10.87;6.00;;;6.90;99.90;;;;;;5078448;28;20452;-68
2021/03/23 06:44:18;;;;;;;10.47;5.10;;;6.90;99.90;;;;;;5089975;28;20457;-68
2021/03/23 06:46:52;;;;;;;13.67;6.03;;;6.90;99.90;;;;;;5072706;28;20828;-68
2021/03/23 06:49:26;;;;;;;12.07;6.23;;;7.00;99.90;;;;;;5078456;28;20456;-68
2021/03/23 06:52:01;;;;;;;10.47;6.10;;;6.90;99.90;;;;;;5109514;28;20537;-69
2021/03/23 06:54:38;;;;;;;9.93;5.70;;;6.90;99.90;;;;;;5109113;28;20462;-69
2021/03/23 06:57:18;;;;;;;11.50;6.23;;;6.90;99.90;;;;;;5093254;28;20490;-70
2021/03/23 07:00:14;;;;;;;12.23;6.90;;;6.90;99.90;;;;;;5109227;28;20443;-68
2021/03/23 07:02:46;;;;;;;13.73;7.93;;;7.00;99.90;;;;;;5088561;28;20926;-68
2021/03/23 07:05:22;;;;;;;10.90;6.60;;;7.00;99.90;;;;;;5093586;28;20456;-68
2021/03/23 07:08:01;;;;;;;11.37;6.17;;;7.00;99.90;;;;;;5109852;28;20976;-68
2021/03/23 07:10:30;;;;;;;13.20;6.87;;;7.00;99.90;;;;;;5108399;28;20826;-67
2021/03/23 07:12:56;;;;;;;14.53;8.90;;;7.00;99.90;;;;;;5087821;28;20520;-68
2021/03/23 07:15:29;;;;;;;13.70;8.50;;;7.00;99.90;;;;;;5093685;28;20449;-67
2021/03/23 07:17:58;;;;;;;11.63;7.50;;;7.00;99.90;;;;;;5056223;28;20951;-68
2021/03/23 07:20:37;;;;;;;15.20;7.90;;;7.00;99.90;;;;;;5071533;28;20564;-68
2021/03/23 07:23:33;;;;;;;18.30;10.07;;;7.00;99.90;;;;;;5089478;28;20448;-68
2021/03/23 07:26:17;;;;;;;15.50;9.60;;;7.00;99.90;;;;;;5088662;28;20449;-69
2021/03/23 07:28:43;;;;;;;25.97;11.63;;;7.00;99.90;;;;;;5088855;28;20509;-68
2021/03/23 07:31:38;;;;;;;23.40;12.80;;;7.00;99.90;;;;;;5072024;28;20461;-68
2021/03/23 07:34:25;;;;;;;22.60;11.13;;;7.00;99.90;;;;;;5089319;28;20453;-68
2021/03/23 07:36:57;;;;;;;16.30;10.50;;;7.10;99.90;;;;;;5088815;28;20456;-68
2021/03/23 07:39:43;;;;;;;21.10;11.23;;;7.10;99.90;;;;;;5067176;28;20464;-68
2021/03/23 07:42:26;;;;;;;13.40;8.37;;;7.10;99.90;;;;;;5091787;28;20440;-68
2021/03/23 07:45:29;;;;;;;16.77;9.27;;;7.10;99.90;;;;;;5090100;28;20453;-69
2021/03/23 07:48:07;;;;;;;13.77;7.30;;;7.10;99.90;;;;;;5064669;28;20457;-69
2021/03/23 07:50:36;;;;;;;13.37;7.63;;;7.10;99.90;;;;;;5070615;28;20456;-68
2021/03/23 07:53:17;;;;;;;19.37;8.27;;;7.20;99.90;;;;;;5065046;28;20472;-71
2021/03/23 07:55:43;;;;;;;17.37;7.90;;;7.20;99.90;;;;;;5059203;28;20444;-68
2021/03/23 07:58:33;;;;;;;12.97;6.90;;;7.20;99.90;;;;;;5066471;28;20983;-71
2021/03/23 08:01:17;;;;;;;16.73;6.97;;;7.20;99.90;;;;;;5065338;28;20253;-68
2021/03/23 08:04:13;;;;;;;14.23;7.80;;;7.20;99.90;;;;;;5068731;28;20440;-69
2021/03/23 08:06:54;;;;;;;15.63;8.10;;;7.20;99.90;;;;;;5065837;28;20457;-69
2021/03/23 08:09:41;;;;;;;12.40;6.63;;;7.20;99.90;;;;;;5066222;28;20449;-68
2021/03/23 08:12:45;;;;;;;10.03;5.20;;;7.20;99.90;;;;;;5070289;28;20509;-71
2021/03/23 08:16:05;;;;;;;13.33;7.07;;;7.20;99.90;;;;;;5066015;28;20473;-68
2021/03/23 08:18:50;;;;;;;14.27;7.53;;;7.20;99.90;;;;;;4965472;28;20524;-69
2021/03/23 08:21:22;;;;;;;11.80;6.70;;;7.30;99.90;;;;;;5045898;28;21072;-68
2021/03/23 08:24:16;;;;;;;11.27;6.70;;;7.30;99.90;;;;;;5062372;28;20449;-69
2021/03/23 08:27:14;;;;;;;14.63;8.60;;;7.30;99.90;;;;;;5076966;28;20448;-69
2021/03/23 08:30:06;;;;;;;12.97;6.80;;;7.30;99.90;;;;;;5054428;28;20457;-68
2021/03/23 08:32:53;;;;;;;13.53;6.77;;;7.30;99.90;;;;;;5085396;28;20463;-69
2021/03/23 08:35:31;;;;;;;17.07;7.83;;;7.30;99.90;;;;;;5085822;28;20504;-68
2021/03/23 08:38:03;;;;;;;14.00;6.60;;;7.30;99.90;;;;;;5070408;28;20458;-68
2021/03/23 08:40:37;;;;;;;12.43;6.70;;;7.30;99.90;;;;;;5080974;28;20472;-68
2021/03/23 08:43:03;;;;;;;13.37;5.57;;;7.30;99.90;;;;;;5091176;28;20995;-69
2021/03/23 08:45:42;;;;;;;10.57;6.27;;;7.30;99.90;;;;;;5082140;27;20447;-68
2021/03/23 08:48:35;;;;;;;13.90;6.80;;;7.40;99.90;;;;;;5072485;28;20533;-69
2021/03/23 08:51:05;;;;;;;13.23;8.00;;;7.40;99.90;;;;;;5069254;28;20454;-68
2021/03/23 08:53:34;;;;;;;10.47;5.67;;;7.40;99.90;;;;;;5075927;28;20554;-69
2021/03/23 08:56:02;;;;;;;18.87;10.27;;;7.40;99.90;;;;;;5088622;28;20539;-67
2021/03/23 08:58:51;;;;;;;23.70;17.47;;;7.40;99.90;;;;;;5085448;28;20502;-68
2021/03/23 09:01:26;;;;;;;17.80;11.60;;;7.50;99.90;;;;;;5070497;28;20459;-68
2021/03/23 09:04:08;;;;;;;11.83;8.23;;;7.50;99.90;;;;;;5071087;28;20460;-68
2021/03/23 09:06:56;;;;;;;11.80;7.87;;;7.50;99.90;;;;;;5071120;28;20460;-69
2021/03/23 09:09:41;;;;;;;11.00;5.33;;;7.60;99.90;;;;;;5087483;28;20452;-68
2021/03/23 09:12:35;;;;;;;12.43;7.53;;;7.60;99.90;;;;;;5074602;28;20467;-69
2021/03/23 09:15:16;;;;;;;11.47;5.83;;;7.50;99.90;;;;;;5074280;28;20460;-68
2021/03/23 09:18:05;;;;;;;9.77;5.40;;;7.50;99.90;;;;;;5087870;28;20441;-68
2021/03/23 09:20:31;;;;;;;7.70;4.57;;;7.60;99.90;;;;;;5090045;28;20449;-68
2021/03/23 09:23:15;;;;;;;11.37;5.17;;;7.60;99.90;;;;;;5091681;28;20437;-68
2021/03/23 09:25:53;;;;;;;12.93;6.60;;;7.70;99.90;;;;;;5101438;28;20219;-69
2021/03/23 09:28:31;;;;;;;12.40;6.97;;;7.70;99.90;;;;;;5070659;28;20497;-69
2021/03/23 09:31:01;;;;;;;18.53;7.90;;;7.80;99.90;;;;;;5088128;28;20484;-68
2021/03/23 09:33:26;;;;;;;10.17;6.23;;;7.80;99.90;;;;;;5070211;28;20532;-68
2021/03/23 09:36:06;;;;;;;10.00;6.63;;;7.80;99.90;;;;;;5073335;28;20535;-68
2021/03/23 09:38:42;;;;;;;12.67;6.57;;;7.80;99.90;;;;;;5070875;28;20218;-68
2021/03/23 09:41:36;;;;;;;13.43;7.30;;;7.90;99.90;;;;;;5087356;28;20551;-69
2021/03/23 09:44:05;;;;;;;12.93;6.40;;;7.90;99.90;;;;;;5094369;28;20543;-68
2021/03/23 09:46:40;;;;;;;11.33;6.63;;;7.90;99.90;;;;;;5086167;27;20459;-68
2021/03/23 09:49:44;;;;;;;11.97;6.90;;;8.00;99.90;;;;;;5081592;28;20977;-68
2021/03/23 09:52:19;;;;;;;10.37;6.23;;;8.00;99.90;;;;;;4970489;28;20477;-68
2021/03/23 09:54:55;;;;;;;13.47;8.37;;;8.10;99.90;;;;;;5059331;28;20445;-68
2021/03/23 09:57:24;;;;;;;15.07;8.03;;;8.10;99.90;;;;;;5052871;28;20465;-68
2021/03/23 09:59:52;;;;;;;12.77;7.67;;;8.10;99.90;;;;;;5083135;28;20455;-68
2021/03/23 10:02:23;;;;;;;13.40;6.70;;;8.10;99.90;;;;;;5083126;28;20472;-68
2021/03/23 10:04:49;;;;;;;15.50;8.57;;;8.00;99.90;;;;;;5095610;28;20464;-68
2021/03/23 10:07:38;;;;;;;17.83;10.20;;;8.00;99.90;;;;;;5072930;28;20549;-68
2021/03/23 10:10:09;;;;;;;19.10;10.03;;;8.10;99.90;;;;;;5068839;28;20519;-68
2021/03/23 10:12:35;;;;;;;18.07;10.30;;;8.20;99.90;;;;;;5084212;28;20480;-68
2021/03/23 10:15:18;;;;;;;49.47;20.30;;;8.20;99.90;;;;;;5076843;28;20459;-67
2021/03/23 10:17:44;;;;;;;48.00;24.07;;;8.30;99.90;;;;;;5082517;28;20229;-69
2021/03/23 10:20:12;;;;;;;33.97;19.67;;;8.40;99.90;;;;;;5063649;28;20456;-68
2021/03/23 10:22:38;;;;;;;21.60;12.30;;;8.40;99.90;;;;;;5080953;28;20728;-68
2021/03/23 10:25:14;;;;;;;22.73;11.50;;;8.50;99.90;;;;;;5053912;28;20540;-69
2021/03/23 10:27:40;;;;;;;23.70;14.17;;;8.50;99.90;;;;;;5085861;28;20620;-68
2021/03/23 10:30:14;;;;;;;21.90;12.33;;;8.60;99.90;;;;;;5071047;28;20928;-68
2021/03/23 10:32:54;;;;;;;20.23;11.40;;;8.60;99.90;;;;;;5092893;28;20951;-69
2021/03/23 10:35:45;;;;;;;22.53;10.20;;;8.60;99.90;;;;;;5078029;28;20441;-69
2021/03/23 10:38:23;;;;;;;17.87;9.53;;;8.60;99.90;;;;;;5097211;27;20477;-68
2021/03/23 10:40:51;;;;;;;20.63;9.63;;;8.70;99.90;;;;;;5081111;28;20452;-68
2021/03/23 10:43:31;;;;;;;17.50;9.60;;;8.70;99.90;;;;;;5053233;28;20966;-68
2021/03/23 10:46:02;;;;;;;13.03;8.47;;;8.70;99.90;;;;;;5084573;28;20821;-69
2021/03/23 10:48:36;;;;;;;12.60;8.30;;;8.80;99.90;;;;;;5066090;27;20456;-69
2021/03/23 10:51:08;;;;;;;20.63;9.10;;;8.80;99.90;;;;;;5093468;28;20485;-68
2021/03/23 10:53:34;;;;;;;12.40;8.10;;;8.80;99.90;;;;;;5101139;27;20480;-68
2021/03/23 10:56:00;;;;;;;13.17;6.97;;;8.80;99.90;;;;;;5067913;28;20444;-68
2021/03/23 10:58:31;;;;;;;13.00;7.80;;;8.80;99.90;;;;;;5048910;27;20456;-68
2021/03/23 11:01:16;;;;;;;15.60;8.30;;;8.90;99.90;;;;;;5092448;28;20216;-68
2021/03/23 11:03:44;;;;;;;15.77;8.23;;;8.90;99.90;;;;;;5073127;28;20474;-70
2021/03/23 11:06:33;;;;;;;12.40;7.30;;;8.90;99.90;;;;;;5076436;28;20944;-69
2021/03/23 11:09:07;;;;;;;14.50;7.17;;;9.00;99.90;;;;;;5066486;28;20507;-68
2021/03/23 11:11:33;;;;;;;11.97;7.20;;;9.00;99.90;;;;;;5060915;28;20453;-69
2021/03/23 11:13:59;;;;;;;13.23;7.07;;;9.00;99.90;;;;;;5077175;28;20448;-69
2021/03/23 11:16:30;;;;;;;11.77;6.70;;;9.10;99.90;;;;;;5075225;27;20458;-69
2021/03/23 11:18:59;;;;;;;15.33;8.23;;;9.10;99.90;;;;;;5092159;28;20230;-68
2021/03/23 11:21:25;;;;;;;13.57;7.63;;;9.20;99.90;;;;;;5075633;27;20490;-69
2021/03/23 11:23:55;;;;;;;12.60;6.93;;;9.20;99.90;;;;;;5083433;28;20462;-68
2021/03/23 11:26:23;;;;;;;12.40;7.43;;;9.20;99.90;;;;;;5059997;28;20465;-68
2021/03/23 11:28:54;;;;;;;17.40;8.07;;;9.30;99.90;;;;;;5063000;28;20513;-69
2021/03/23 11:31:22;;;;;;;11.77;6.47;;;9.20;99.90;;;;;;5078736;28;20544;-69
2021/03/23 11:33:49;;;;;;;12.60;7.10;;;9.20;99.90;;;;;;5063300;28;20548;-69
2021/03/23 11:36:15;;;;;;;19.67;7.70;;;9.30;99.90;;;;;;5067585;28;20459;-70
2021/03/23 11:38:41;;;;;;;14.57;8.37;;;9.20;99.90;;;;;;5108422;28;20530;-71
2021/03/23 11:41:15;;;;;;;14.73;8.17;;;9.20;99.90;;;;;;5057694;28;20530;-71
2021/03/23 11:43:46;;;;;;;18.20;7.33;;;9.20;99.90;;;;;;5102430;28;20500;-70
2021/03/23 11:46:26;;;;;;;17.80;7.90;;;9.30;99.90;;;;;;5084971;28;20453;-70
2021/03/23 11:49:03;;;;;;;16.23;8.20;;;9.30;99.90;;;;;;5069614;28;20453;-69
2021/03/23 11:51:29;;;;;;;15.23;7.97;;;9.30;99.90;;;;;;5064141;28;20485;-70
2021/03/23 11:53:55;;;;;;;17.37;8.30;;;9.40;99.90;;;;;;5104601;28;20451;-70
2021/03/23 11:56:21;;;;;;;16.30;8.73;;;9.40;99.90;;;;;;5068287;28;20214;-72
2021/03/23 11:58:47;;;;;;;14.37;7.07;;;9.40;99.90;;;;;;5068116;28;20218;-70
2021/03/23 12:01:13;;;;;;;13.93;8.63;;;9.40;99.90;;;;;;5067297;28;20862;-70
2021/03/23 12:03:39;;;;;;;12.50;7.50;;;9.40;99.90;;;;;;5018528;28;20699;-69
2021/03/23 12:06:07;;;;;;;13.80;7.30;;;9.40;99.90;;;;;;5049713;28;20769;-71
2021/03/23 12:08:38;;;;;;;11.23;7.60;;;9.50;99.90;;;;;;5068570;28;20436;-70
2021/03/23 12:11:20;;;;;;;15.20;7.97;;;9.50;99.90;;;;;;5053844;28;20452;-71
2021/03/23 12:14:12;;;;;;;12.67;6.93;;;9.50;99.90;;;;;;5080352;28;20465;-71
2021/03/23 12:16:59;;;;;;;55.63;29.23;;;9.60;99.90;;;;;;5081125;28;20518;-70
2021/03/23 12:19:32;;;;;;;37.73;24.50;;;9.60;99.90;;;;;;5068780;28;20460;-68
2021/03/23 12:21:58;;;;;;;23.63;13.97;;;9.60;99.90;;;;;;5069076;28;20479;-71
2021/03/23 12:24:24;;;;;;;18.60;11.80;;;9.60;99.90;;;;;;5061054;28;20468;-71
2021/03/23 12:26:51;;;;;;;14.13;9.47;;;9.70;99.90;;;;;;5069268;28;20285;-70
2021/03/23 12:29:47;;;;;;;15.77;9.00;;;9.70;99.90;;;;;;5073957;28;20481;-70
2021/03/23 12:32:16;;;;;;;27.20;15.07;;;9.80;99.90;;;;;;5087510;27;20469;-72
2021/03/23 12:34:46;;;;;;;29.97;16.10;;;9.80;99.90;;;;;;5071074;28;21039;-71
2021/03/23 12:37:13;;;;;;;19.40;10.40;;;9.90;99.90;;;;;;5059060;28;20444;-69
2021/03/23 12:39:39;;;;;;;20.87;10.57;;;9.90;99.90;;;;;;5082481;28;20444;-70
2021/03/23 12:42:06;;;;;;;21.63;11.70;;;9.90;99.90;;;;;;5065950;27;20444;-71
2021/03/23 12:44:32;;;;;;;16.27;9.40;;;9.90;99.90;;;;;;5072385;28;20227;-70
2021/03/23 12:46:58;;;;;;;15.80;8.30;;;10.00;99.90;;;;;;5055479;28;20478;-70
2021/03/23 12:49:24;;;;;;;11.30;7.30;;;10.00;99.90;;;;;;5054279;28;20531;-68
2021/03/23 12:51:55;;;;;;;13.20;7.40;;;10.00;99.90;;;;;;5055302;28;20215;-68
2021/03/23 12:54:28;;;;;;;13.70;7.77;;;10.00;99.90;;;;;;5071228;28;20223;-70
2021/03/23 12:56:54;;;;;;;12.50;7.20;;;10.10;99.90;;;;;;5071645;28;20441;-69
2021/03/23 12:59:24;;;;;;;16.07;7.80;;;10.10;99.90;;;;;;5054040;28;20456;-69
2021/03/23 13:01:50;;;;;;;12.50;6.20;;;10.10;99.90;;;;;;5054791;28;20229;-69
2021/03/23 13:04:16;;;;;;;10.90;6.10;;;10.20;99.90;;;;;;5056197;28;20457;-69
2021/03/23 13:06:42;;;;;;;10.50;6.63;;;10.20;99.90;;;;;;5086414;28;20527;-68
2021/03/23 13:09:11;;;;;;;12.70;6.40;;;10.30;99.90;;;;;;5064054;28;20226;-69
2021/03/23 13:11:42;;;;;;;12.03;6.40;;;10.30;99.90;;;;;;5067294;28;20222;-68
2021/03/23 13:14:17;;;;;;;11.67;6.30;;;10.30;99.90;;;;;;5094583;28;20468;-69